»·PEaware :: N564CL KOLM-KSFF

N564CL :: KOLM-KSFF

FLIGHT INFORMATION

Flight Status: Arrived
Operator: Privately registered:
United States
More flights under this callsign
Pilot: Jim P. (2486)
Aircraft: GATES LEARJET LEARJET 25
(LJ25)
More flights by this aircraft type
Origin: KOLM Olympia
United States
Destination: KSFF Felts
United States
More flights between these airports :: More routes between these airports
Route: OLM J34 RADDY EPH
File this flight plan on PilotEdge
Remarks:
Altitude:
(Current/Filed)
27,000ft
Speed:
(Current/Filed)
460kts
Departed: 16-Mar-19 10:20 AM
Arrived: 16-Mar-19 11:04 AM
Distance/Time
Traveled:
231nm/0:44
Distance/Time
To Go:
Arrived

Flight Plot

Page will automatically refresh every two minutes.

Flight plan parsing failed; only flown route is shown


Map Options




Map Legend


Flown Route
Filed Route
Departure Airport
Arrival Airport
Navaid (VOR, NDB)
Fix

Horizontal Profiles

Position Reports

Time Latitude Longitude Heading Altitude Ground
Speed
16-Mar-19 10:03 46.975395 -122.898534 98 201ft 0kts
16-Mar-19 10:04 46.975395 -122.898534 98 201ft 0kts
16-Mar-19 10:05 46.975395 -122.898534 98 201ft 0kts
16-Mar-19 10:06 46.975395 -122.898534 98 201ft 0kts
16-Mar-19 10:07 46.975395 -122.898534 98 201ft 0kts
16-Mar-19 10:08 46.975395 -122.898534 98 201ft 0kts
16-Mar-19 10:09 46.975395 -122.898534 98 201ft 0kts
16-Mar-19 10:10 46.975395 -122.898534 98 201ft 0kts
16-Mar-19 10:11 46.975395 -122.898534 98 201ft 0kts
16-Mar-19 10:12 46.975395 -122.898534 98 201ft 0kts
16-Mar-19 10:13 46.975395 -122.898534 98 201ft 0kts
16-Mar-19 10:14 46.975395 -122.898534 98 201ft 0kts
16-Mar-19 10:15 46.975527 -122.898302 342 201ft 0kts
16-Mar-19 10:16 46.975996 -122.899872 282 201ft 6kts
16-Mar-19 10:17 46.976188 -122.901362 280 201ft 0kts
16-Mar-19 10:18 46.976273 -122.902040 278 201ft 7kts
16-Mar-19 10:19 46.943521 -122.907669 166 1058ft 258kts
16-Mar-19 10:20 46.921808 -122.825675 81 2876ft 242kts
16-Mar-19 10:21 46.934836 -122.716120 79 5119ft 275kts
16-Mar-19 10:22 46.948517 -122.613098 79 8264ft 269kts
16-Mar-19 10:23 46.964331 -122.501687 73 11573ft 289kts
16-Mar-19 10:24 46.997339 -122.389232 66 14896ft 310kts
16-Mar-19 10:25 47.032044 -122.268757 67 18204ft 331kts
16-Mar-19 10:26 47.049455 -122.132107 83 21520ft 353kts
16-Mar-19 10:27 47.057688 -121.984294 84 24832ft 374kts
16-Mar-19 10:28 47.067088 -121.827142 82 27360ft 420kts
16-Mar-19 10:29 47.080375 -121.630947 82 27333ft 493kts
16-Mar-19 10:30 47.093823 -121.431989 82 27322ft 488kts
16-Mar-19 10:31 47.109373 -121.234540 78 27327ft 486kts
16-Mar-19 10:33 47.144044 -121.043850 67 27339ft 481kts
16-Mar-19 10:34 47.199659 -120.865400 60 27359ft 478kts
16-Mar-19 10:35 47.259699 -120.691380 59 27374ft 478kts
16-Mar-19 10:36 47.301239 -120.504758 76 27396ft 484kts
16-Mar-19 10:37 47.322588 -120.308190 80 27409ft 486kts
16-Mar-19 10:38 47.339535 -120.110107 80 26783ft 486kts
16-Mar-19 10:39 47.355876 -119.914268 80 25186ft 477kts
16-Mar-19 10:40 47.370331 -119.735301 80 23275ft 433kts
16-Mar-19 10:41 47.384948 -119.560492 80 21287ft 424kts
16-Mar-19 10:42 47.400708 -119.391150 76 19297ft 409kts
16-Mar-19 10:43 47.406631 -119.226337 82 17319ft 397kts
16-Mar-19 10:44 47.432036 -119.071534 70 15332ft 381kts
16-Mar-19 10:45 47.465192 -118.926153 69 13529ft 366kts
16-Mar-19 10:46 47.498265 -118.785086 69 13035ft 360kts
16-Mar-19 10:47 47.531070 -118.645815 69 12995ft 358kts
16-Mar-19 10:48 47.563728 -118.506816 69 12994ft 357kts
16-Mar-19 10:49 47.596467 -118.367160 69 12739ft 358kts
16-Mar-19 10:50 47.623914 -118.250330 69 10977ft 280kts
16-Mar-19 10:51 47.647271 -118.138827 76 9287ft 283kts
16-Mar-19 10:52 47.665015 -118.031773 76 7353ft 219kts
16-Mar-19 10:53 47.679082 -117.947132 76 5366ft 212kts
16-Mar-19 10:53 47.688644 -117.875826 81 4967ft 214kts
16-Mar-19 10:55 47.694630 -117.775494 85 4222ft 164kts
16-Mar-19 10:56 47.697484 -117.711428 85 3967ft 168kts
16-Mar-19 10:56 47.696442 -117.652591 96 3962ft 173kts
16-Mar-19 10:57 47.690110 -117.583930 102 3881ft 147kts
16-Mar-19 10:58 47.677258 -117.529383 111 2984ft 129kts
16-Mar-19 10:59 47.660611 -117.479004 122 2876ft 139kts
16-Mar-19 11:00 47.654095 -117.425701 80 2752ft 141kts
16-Mar-19 11:01 47.660603 -117.375344 71 2510ft 133kts
16-Mar-19 11:02 47.678558 -117.332595 53 2002ft 109kts
16-Mar-19 11:03 47.686148 -117.316365 130 1956ft 9kts
16-Mar-19 11:04 47.684833 -117.314992 148 1956ft 8kts
16-Mar-19 11:05 47.682733 -117.313905 221 1956ft 9kts
16-Mar-19 11:06 47.681539 -117.318460 250 1956ft 14kts
16-Mar-19 11:07 47.680478 -117.321726 158 1956ft 0kts
16-Mar-19 11:08 47.680478 -117.321726 158 1956ft 0kts
16-Mar-19 11:09 47.680478 -117.321726 158 1956ft 0kts
16-Mar-19 11:10 47.680478 -117.321726 158 1956ft 0kts
16-Mar-19 11:11 47.680478 -117.321726 158 1956ft 0kts
16-Mar-19 11:12 47.680478 -117.321726 158 1956ft 0kts
16-Mar-19 11:13 47.680478 -117.321726 158 1956ft 0kts
16-Mar-19 11:14 47.680478 -117.321726 158 1956ft 0kts
16-Mar-19 11:15 47.680478 -117.321726 158 1956ft 0kts
16-Mar-19 11:16 47.680478 -117.321726 158 1956ft 0kts
16-Mar-19 11:17 47.680478 -117.321726 158 1956ft 0kts

Navigation Log

Ident Type
Flight plan parsing failed, navigation log unavailable